Richardson's Hourly Summary for Friday, July 6, 2018
Hour Temp
(f)
RH
(%)
Solar Rad.
(MJ/m2)
Rainfall
(in)
Wind
(mph)
7/6/2018 12:00 AM 84 61 0 0 2.92
7/6/2018 1:00 AM 83 63 0 0 1.96
7/6/2018 2:00 AM 82 67 0 0 1.57
7/6/2018 3:00 AM 80 68 0 0 0.77
7/6/2018 4:00 AM 78 75 0 0 1.53
7/6/2018 5:00 AM 78 77 0 0 1.84
7/6/2018 6:00 AM 77 79 0 0 1.99
7/6/2018 7:00 AM 77 78 0.06 0 1.81
7/6/2018 8:00 AM 79 70 0.58 0 1.89
7/6/2018 9:00 AM 82 65 1.22 0 2.56
7/6/2018 10:00 AM 85 60 1.9 0 3.03
7/6/2018 11:00 AM 88 52 2.47 0 4.51
7/6/2018 12:00 PM 89 46 2.4 0 4.57
7/6/2018 1:00 PM 92 40 3.34 0 4.95
7/6/2018 2:00 PM 93 36 2.62 0 5.09
7/6/2018 3:00 PM 92 34 1.95 0.03 6.14
7/6/2018 4:00 PM 78 70 0.29 0.01 3.69
7/6/2018 5:00 PM 80 65 0.49 0 1.97
7/6/2018 6:00 PM 82 58 0.76 0 3.9
7/6/2018 7:00 PM 82 57 0.92 0 5.05
7/6/2018 8:00 PM 82 58 0.29 0 2.77
7/6/2018 9:00 PM 81 65 0.02 0 1.92
7/6/2018 10:00 PM 79 72 0 0 2.97
7/6/2018 11:00 PM 79 72 0 0 1.23
Data Summary 82 62 19.31 0.04 2.94